sensor_id;sensor_type;location;lat;lon;timestamp;pressure;altitude;pressure_sealevel;temperature;humidity
27210;BME280;14721;42.668;23.386;2023-07-29T00:01:18;95058.47;;;19.76;58.07
27210;BME280;14721;42.668;23.386;2023-07-29T00:04:12;95101.28;;;19.89;59.20
27210;BME280;14721;42.668;23.386;2023-07-29T00:07:14;95064.28;;;19.57;59.40
27210;BME280;14721;42.668;23.386;2023-07-29T00:10:19;95032.69;;;19.34;59.51
27210;BME280;14721;42.668;23.386;2023-07-29T00:13:05;95078.72;;;19.50;60.59
27210;BME280;14721;42.668;23.386;2023-07-29T00:15:47;95042.16;;;19.22;60.70
27210;BME280;14721;42.668;23.386;2023-07-29T00:18:42;95050.31;;;19.30;61.43
27210;BME280;14721;42.668;23.386;2023-07-29T00:21:26;95140.63;;;19.77;61.56
27210;BME280;14721;42.668;23.386;2023-07-29T00:24:02;95102.41;;;19.56;62.06
27210;BME280;14721;42.668;23.386;2023-07-29T00:26:29;95114.75;;;19.66;62.71
27210;BME280;14721;42.668;23.386;2023-07-29T00:29:02;95072.09;;;19.44;63.01
27210;BME280;14721;42.668;23.386;2023-07-29T00:31:30;95094.63;;;19.45;63.31
27210;BME280;14721;42.668;23.386;2023-07-29T00:34:20;95087.53;;;19.36;63.66
27210;BME280;14721;42.668;23.386;2023-07-29T00:36:57;95053.53;;;19.09;64.67
27210;BME280;14721;42.668;23.386;2023-07-29T00:39:25;95026.81;;;18.98;64.79
27210;BME280;14721;42.668;23.386;2023-07-29T00:42:02;95114.13;;;19.48;65.44
27210;BME280;14721;42.668;23.386;2023-07-29T00:44:28;95113.44;;;19.38;65.75
27210;BME280;14721;42.668;23.386;2023-07-29T00:46:57;95067.72;;;19.11;64.52
27210;BME280;14721;42.668;23.386;2023-07-29T00:49:23;95103.63;;;19.29;63.87
27210;BME280;14721;42.668;23.386;2023-07-29T00:51:49;95107.16;;;19.22;62.51
27210;BME280;14721;42.668;23.386;2023-07-29T00:54:15;95047.94;;;18.95;61.09
27210;BME280;14721;42.668;23.386;2023-07-29T00:56:40;95104.81;;;19.11;61.27
27210;BME280;14721;42.668;23.386;2023-07-29T00:59:06;95028.03;;;18.72;60.76
27210;BME280;14721;42.668;23.386;2023-07-29T01:01:32;95105.66;;;19.11;60.69
27210;BME280;14721;42.668;23.386;2023-07-29T01:03:57;95097.22;;;19.06;60.18
27210;BME280;14721;42.668;23.386;2023-07-29T01:06:31;95108.53;;;19.02;60.89
27210;BME280;14721;42.668;23.386;2023-07-29T01:14:01;95046.47;;;18.76;59.30
27210;BME280;14721;42.668;23.386;2023-07-29T01:16:41;95092.63;;;18.91;59.72
27210;BME280;14721;42.668;23.386;2023-07-29T01:19:23;95088.72;;;18.93;60.17
27210;BME280;14721;42.668;23.386;2023-07-29T01:21:54;95091.78;;;18.90;59.96
27210;BME280;14721;42.668;23.386;2023-07-29T01:24:20;95099.25;;;18.88;60.48
27210;BME280;14721;42.668;23.386;2023-07-29T01:26:45;95082.47;;;18.68;59.82
27210;BME280;14721;42.668;23.386;2023-07-29T01:29:11;95085.53;;;18.65;59.99
27210;BME280;14721;42.668;23.386;2023-07-29T01:31:43;95106.34;;;18.73;60.65
27210;BME280;14721;42.668;23.386;2023-07-29T01:34:15;95103.81;;;18.72;60.75
27210;BME280;14721;42.668;23.386;2023-07-29T01:36:45;95099.41;;;18.62;61.23
27210;BME280;14721;42.668;23.386;2023-07-29T01:39:12;95110.53;;;18.67;61.31
27210;BME280;14721;42.668;23.386;2023-07-29T01:41:39;95101.22;;;18.54;61.85
27210;BME280;14721;42.668;23.386;2023-07-29T01:44:08;95058.38;;;18.25;62.03
27210;BME280;14721;42.668;23.386;2023-07-29T01:46:34;95076.53;;;18.41;62.17
27210;BME280;14721;42.668;23.386;2023-07-29T01:49:00;95090.94;;;18.57;61.76
27210;BME280;14721;42.668;23.386;2023-07-29T01:51:25;95099.88;;;18.50;62.20
27210;BME280;14721;42.668;23.386;2023-07-29T01:53:54;95104.13;;;18.68;62.34
27210;BME280;14721;42.668;23.386;2023-07-29T01:56:21;95087.53;;;18.55;62.63
27210;BME280;14721;42.668;23.386;2023-07-29T01:58:51;95100.06;;;18.56;63.25
27210;BME280;14721;42.668;23.386;2023-07-29T02:01:17;95081.63;;;18.52;62.57
27210;BME280;14721;42.668;23.386;2023-07-29T02:03:43;95070.09;;;18.42;62.37
27210;BME280;14721;42.668;23.386;2023-07-29T02:06:10;95107.16;;;18.57;62.85
27210;BME280;14721;42.668;23.386;2023-07-29T02:08:38;95110.19;;;18.54;63.25
27210;BME280;14721;42.668;23.386;2023-07-29T02:11:06;95071.56;;;18.28;63.28
27210;BME280;14721;42.668;23.386;2023-07-29T02:13:33;95099.03;;;18.41;63.56
27210;BME280;14721;42.668;23.386;2023-07-29T02:15:58;95116.28;;;18.48;64.52
27210;BME280;14721;42.668;23.386;2023-07-29T02:18:24;95091.25;;;18.38;63.60
27210;BME280;14721;42.668;23.386;2023-07-29T02:20:50;95111.88;;;18.47;64.29
27210;BME280;14721;42.668;23.386;2023-07-29T02:23:15;95094.75;;;18.31;64.22
27210;BME280;14721;42.668;23.386;2023-07-29T02:25:42;95104.53;;;18.32;64.98
27210;BME280;14721;42.668;23.386;2023-07-29T02:28:08;95099.47;;;18.29;65.48
27210;BME280;14721;42.668;23.386;2023-07-29T02:30:33;95126.88;;;18.34;65.27
27210;BME280;14721;42.668;23.386;2023-07-29T02:32:59;95109.09;;;18.23;64.79
27210;BME280;14721;42.668;23.386;2023-07-29T02:35:26;95092.50;;;18.18;64.96
27210;BME280;14721;42.668;23.386;2023-07-29T02:37:52;95111.31;;;18.36;64.83
27210;BME280;14721;42.668;23.386;2023-07-29T02:40:17;95087.44;;;18.15;64.58
27210;BME280;14721;42.668;23.386;2023-07-29T02:42:50;95090.63;;;18.11;64.63
27210;BME280;14721;42.668;23.386;2023-07-29T02:45:18;95100.97;;;18.23;64.27
27210;BME280;14721;42.668;23.386;2023-07-29T02:47:43;95119.97;;;18.39;64.43
27210;BME280;14721;42.668;23.386;2023-07-29T02:50:09;95109.91;;;18.24;64.01
27210;BME280;14721;42.668;23.386;2023-07-29T02:52:35;95043.13;;;17.92;64.16
27210;BME280;14721;42.668;23.386;2023-07-29T02:55:03;95128.72;;;18.33;63.92
27210;BME280;14721;42.668;23.386;2023-07-29T02:57:32;95113.28;;;18.18;64.08
27210;BME280;14721;42.668;23.386;2023-07-29T02:59:58;95103.81;;;18.14;64.34
27210;BME280;14721;42.668;23.386;2023-07-29T03:02:23;95119.19;;;18.13;64.11
27210;BME280;14721;42.668;23.386;2023-07-29T03:04:48;95110.69;;;18.00;64.47
27210;BME280;14721;42.668;23.386;2023-07-29T03:07:14;95073.09;;;17.73;64.86
27210;BME280;14721;42.668;23.386;2023-07-29T03:09:39;95134.38;;;18.06;64.77
27210;BME280;14721;42.668;23.386;2023-07-29T03:12:09;95132.38;;;18.08;64.42
27210;BME280;14721;42.668;23.386;2023-07-29T03:14:34;95136.38;;;18.04;64.11
27210;BME280;14721;42.668;23.386;2023-07-29T03:17:02;95130.94;;;17.88;64.20
27210;BME280;14721;42.668;23.386;2023-07-29T03:19:29;95144.13;;;17.91;64.70
27210;BME280;14721;42.668;23.386;2023-07-29T03:21:55;95143.84;;;18.02;64.68
27210;BME280;14721;42.668;23.386;2023-07-29T03:24:20;95136.91;;;18.08;64.77
27210;BME280;14721;42.668;23.386;2023-07-29T03:26:46;95102.88;;;17.81;66.38
27210;BME280;14721;42.668;23.386;2023-07-29T03:29:11;95136.22;;;17.98;68.49
27210;BME280;14721;42.668;23.386;2023-07-29T03:31:40;95144.69;;;18.11;69.33
27210;BME280;14721;42.668;23.386;2023-07-29T03:34:05;95146.22;;;18.13;69.87
27210;BME280;14721;42.668;23.386;2023-07-29T03:36:32;95144.41;;;18.30;70.26
27210;BME280;14721;42.668;23.386;2023-07-29T03:38:58;95135.63;;;19.02;68.09
27210;BME280;14721;42.668;23.386;2023-07-29T03:41:24;95133.13;;;19.95;64.61
27210;BME280;14721;42.668;23.386;2023-07-29T03:43:50;95144.50;;;20.98;61.13
27210;BME280;14721;42.668;23.386;2023-07-29T03:46:15;95098.00;;;21.67;57.87
27210;BME280;14721;42.668;23.386;2023-07-29T03:48:44;95130.69;;;22.55;55.20
27210;BME280;14721;42.668;23.386;2023-07-29T03:53:56;95095.72;;;23.63;51.41
27210;BME280;14721;42.668;23.386;2023-07-29T03:56:21;95127.34;;;24.47;49.48
27210;BME280;14721;42.668;23.386;2023-07-29T03:58:46;95097.75;;;24.51;48.46
27210;BME280;14721;42.668;23.386;2023-07-29T04:01:15;95126.31;;;24.95;47.82
27210;BME280;14721;42.668;23.386;2023-07-29T04:03:40;95112.78;;;25.60;45.98
27210;BME280;14721;42.668;23.386;2023-07-29T04:06:05;95123.72;;;26.19;44.42
27210;BME280;14721;42.668;23.386;2023-07-29T04:08:31;95108.25;;;26.44;43.46
27210;BME280;14721;42.668;23.386;2023-07-29T04:10:57;95130.28;;;26.82;42.98
27210;BME280;14721;42.668;23.386;2023-07-29T04:13:22;95139.22;;;27.46;41.02
27210;BME280;14721;42.668;23.386;2023-07-29T04:15:48;95133.38;;;27.67;40.45
27210;BME280;14721;42.668;23.386;2023-07-29T04:18:13;95094.75;;;27.93;39.34
27210;BME280;14721;42.668;23.386;2023-07-29T04:20:39;95115.66;;;28.19;39.11
27210;BME280;14721;42.668;23.386;2023-07-29T04:23:04;95135.50;;;28.21;39.07
27210;BME280;14721;42.668;23.386;2023-07-29T04:25:30;95132.69;;;28.45;38.70
27210;BME280;14721;42.668;23.386;2023-07-29T04:27:55;95139.88;;;28.46;38.50
27210;BME280;14721;42.668;23.386;2023-07-29T04:30:23;95123.50;;;28.15;39.42
27210;BME280;14721;42.668;23.386;2023-07-29T04:32:48;95123.91;;;28.37;39.19
27210;BME280;14721;42.668;23.386;2023-07-29T04:35:14;95135.72;;;28.80;38.29
27210;BME280;14721;42.668;23.386;2023-07-29T04:37:40;95091.41;;;28.34;38.79
27210;BME280;14721;42.668;23.386;2023-07-29T04:40:06;95131.28;;;28.97;37.98
27210;BME280;14721;42.668;23.386;2023-07-29T04:42:32;95114.31;;;29.48;36.71
27210;BME280;14721;42.668;23.386;2023-07-29T04:44:58;95141.16;;;29.93;36.19
27210;BME280;14721;42.668;23.386;2023-07-29T04:47:26;95134.16;;;29.68;36.48
27210;BME280;14721;42.668;23.386;2023-07-29T04:49:56;95140.47;;;29.39;36.95
27210;BME280;14721;42.668;23.386;2023-07-29T04:52:22;95128.66;;;29.02;37.80
27210;BME280;14721;42.668;23.386;2023-07-29T04:54:47;95134.69;;;29.58;36.63
27210;BME280;14721;42.668;23.386;2023-07-29T04:57:13;95137.88;;;29.73;36.39
27210;BME280;14721;42.668;23.386;2023-07-29T04:59:38;95146.91;;;30.03;35.83
27210;BME280;14721;42.668;23.386;2023-07-29T05:02:06;95153.22;;;29.81;36.05
27210;BME280;14721;42.668;23.386;2023-07-29T05:04:31;95141.19;;;29.34;36.54
27210;BME280;14721;42.668;23.386;2023-07-29T05:06:57;95145.31;;;30.37;35.06
27210;BME280;14721;42.668;23.386;2023-07-29T05:09:23;95149.38;;;30.69;34.60
27210;BME280;14721;42.668;23.386;2023-07-29T05:11:48;95155.88;;;31.26;33.72
27210;BME280;14721;42.668;23.386;2023-07-29T05:14:15;95171.47;;;31.43;33.34
27210;BME280;14721;42.668;23.386;2023-07-29T05:16:49;95127.78;;;31.40;32.98
27210;BME280;14721;42.668;23.386;2023-07-29T05:19:45;95116.75;;;30.66;33.96
27210;BME280;14721;42.668;23.386;2023-07-29T05:22:15;95159.69;;;30.85;34.70
27210;BME280;14721;42.668;23.386;2023-07-29T05:24:43;95129.91;;;31.10;33.66
27210;BME280;14721;42.668;23.386;2023-07-29T05:37:41;95130.59;;;31.57;32.26
27210;BME280;14721;42.668;23.386;2023-07-29T05:40:11;95137.56;;;32.04;31.62
27210;BME280;14721;42.668;23.386;2023-07-29T05:42:37;95099.34;;;31.84;31.33
27210;BME280;14721;42.668;23.386;2023-07-29T05:45:13;95163.69;;;32.13;31.61
27210;BME280;14721;42.668;23.386;2023-07-29T05:47:38;95169.56;;;32.16;31.58
27210;BME280;14721;42.668;23.386;2023-07-29T05:50:04;95153.81;;;31.44;32.45
27210;BME280;14721;42.668;23.386;2023-07-29T05:52:33;95176.94;;;32.11;31.59
27210;BME280;14721;42.668;23.386;2023-07-29T05:54:59;95173.47;;;32.48;31.58
27210;BME280;14721;42.668;23.386;2023-07-29T05:57:25;95175.63;;;32.80;30.79
27210;BME280;14721;42.668;23.386;2023-07-29T05:59:50;95172.84;;;32.96;30.48
27210;BME280;14721;42.668;23.386;2023-07-29T06:02:18;95128.69;;;31.85;31.91
27210;BME280;14721;42.668;23.386;2023-07-29T06:04:43;95166.38;;;32.08;32.06
27210;BME280;14721;42.668;23.386;2023-07-29T06:07:08;95147.47;;;31.72;32.55
27210;BME280;14721;42.668;23.386;2023-07-29T06:09:34;95127.00;;;32.17;31.51
27210;BME280;14721;42.668;23.386;2023-07-29T06:11:59;95162.03;;;32.28;31.22
27210;BME280;14721;42.668;23.386;2023-07-29T06:14:25;95156.25;;;32.13;31.73
27210;BME280;14721;42.668;23.386;2023-07-29T06:16:51;95159.06;;;32.46;30.93
27210;BME280;14721;42.668;23.386;2023-07-29T06:19:17;95167.81;;;32.77;31.18
27210;BME280;14721;42.668;23.386;2023-07-29T06:21:43;95165.47;;;33.23;30.70
27210;BME280;14721;42.668;23.386;2023-07-29T06:24:09;95158.72;;;33.36;30.32
27210;BME280;14721;42.668;23.386;2023-07-29T06:26:34;95151.72;;;32.74;30.86
27210;BME280;14721;42.668;23.386;2023-07-29T06:29:00;95166.16;;;32.76;31.06
27210;BME280;14721;42.668;23.386;2023-07-29T06:31:25;95143.69;;;32.72;31.35
27210;BME280;14721;42.668;23.386;2023-07-29T06:33:51;95135.78;;;33.19;30.28
27210;BME280;14721;42.668;23.386;2023-07-29T06:36:16;95157.13;;;33.40;29.97
27210;BME280;14721;42.668;23.386;2023-07-29T06:38:41;95146.31;;;33.38;30.00
27210;BME280;14721;42.668;23.386;2023-07-29T06:41:07;95134.72;;;33.41;29.90
27210;BME280;14721;42.668;23.386;2023-07-29T06:43:33;95131.94;;;33.68;29.22
27210;BME280;14721;42.668;23.386;2023-07-29T06:45:58;95135.94;;;33.77;29.70
27210;BME280;14721;42.668;23.386;2023-07-29T06:48:23;95138.63;;;33.72;29.94
27210;BME280;14721;42.668;23.386;2023-07-29T06:50:49;95120.34;;;33.92;29.26
27210;BME280;14721;42.668;23.386;2023-07-29T06:53:18;95141.47;;;33.77;29.24
27210;BME280;14721;42.668;23.386;2023-07-29T06:55:44;95140.75;;;33.86;28.94
27210;BME280;14721;42.668;23.386;2023-07-29T06:58:10;95140.06;;;33.74;29.43
27210;BME280;14721;42.668;23.386;2023-07-29T07:00:35;95118.34;;;33.88;29.85
27210;BME280;14721;42.668;23.386;2023-07-29T07:03:01;95126.50;;;33.99;29.20
27210;BME280;14721;42.668;23.386;2023-07-29T07:05:26;95118.50;;;34.34;28.61
27210;BME280;14721;42.668;23.386;2023-07-29T07:07:52;95111.53;;;34.32;29.28
27210;BME280;14721;42.668;23.386;2023-07-29T07:10:18;95128.09;;;34.22;28.71
27210;BME280;14721;42.668;23.386;2023-07-29T07:12:43;95115.59;;;33.93;28.41
27210;BME280;14721;42.668;23.386;2023-07-29T07:15:08;95134.63;;;34.11;28.79
27210;BME280;14721;42.668;23.386;2023-07-29T07:17:34;95101.72;;;34.51;28.24
27210;BME280;14721;42.668;23.386;2023-07-29T07:19:59;95140.69;;;34.71;28.29
27210;BME280;14721;42.668;23.386;2023-07-29T07:22:25;95129.59;;;34.71;28.32
27210;BME280;14721;42.668;23.386;2023-07-29T07:24:50;95140.03;;;34.91;27.93
27210;BME280;14721;42.668;23.386;2023-07-29T07:27:16;95127.63;;;34.03;28.65
27210;BME280;14721;42.668;23.386;2023-07-29T07:29:41;95124.44;;;33.90;29.38
27210;BME280;14721;42.668;23.386;2023-07-29T07:32:07;95129.94;;;34.11;29.32
27210;BME280;14721;42.668;23.386;2023-07-29T07:34:32;95120.00;;;34.47;28.28
27210;BME280;14721;42.668;23.386;2023-07-29T07:36:58;95106.44;;;34.51;28.32
27210;BME280;14721;42.668;23.386;2023-07-29T07:39:24;95110.22;;;34.76;28.18
27210;BME280;14721;42.668;23.386;2023-07-29T07:41:49;95096.09;;;34.83;27.92
27210;BME280;14721;42.668;23.386;2023-07-29T07:44:15;95094.63;;;35.17;27.53
27210;BME280;14721;42.668;23.386;2023-07-29T07:46:43;95133.88;;;35.30;27.62
27210;BME280;14721;42.668;23.386;2023-07-29T07:49:08;95079.84;;;35.01;27.32
27210;BME280;14721;42.668;23.386;2023-07-29T07:51:33;95123.59;;;35.31;26.89
27210;BME280;14721;42.668;23.386;2023-07-29T07:53:59;95103.56;;;35.29;27.17
27210;BME280;14721;42.668;23.386;2023-07-29T07:56:24;95107.66;;;35.73;26.90
27210;BME280;14721;42.668;23.386;2023-07-29T07:58:50;95099.28;;;35.68;26.33
27210;BME280;14721;42.668;23.386;2023-07-29T08:01:15;95123.91;;;35.34;26.37
27210;BME280;14721;42.668;23.386;2023-07-29T08:03:40;95119.75;;;35.42;27.20
27210;BME280;14721;42.668;23.386;2023-07-29T08:06:06;95121.63;;;35.88;26.11
27210;BME280;14721;42.668;23.386;2023-07-29T08:08:31;95112.09;;;35.64;26.10
27210;BME280;14721;42.668;23.386;2023-07-29T08:10:57;95129.84;;;35.63;26.71
27210;BME280;14721;42.668;23.386;2023-07-29T08:13:23;95061.56;;;35.82;26.66
27210;BME280;14721;42.668;23.386;2023-07-29T08:15:51;95126.22;;;35.57;26.38
27210;BME280;14721;42.668;23.386;2023-07-29T08:18:17;95112.94;;;35.79;25.77
27210;BME280;14721;42.668;23.386;2023-07-29T08:20:53;95095.78;;;36.03;25.70
27210;BME280;14721;42.668;23.386;2023-07-29T08:23:20;95106.31;;;36.00;25.84
27210;BME280;14721;42.668;23.386;2023-07-29T08:25:51;95108.31;;;36.10;26.04
27210;BME280;14721;42.668;23.386;2023-07-29T08:28:17;95116.94;;;36.24;25.17
27210;BME280;14721;42.668;23.386;2023-07-29T08:30:42;95119.06;;;35.71;26.03
27210;BME280;14721;42.668;23.386;2023-07-29T08:33:08;95114.94;;;35.99;25.88
27210;BME280;14721;42.668;23.386;2023-07-29T08:35:33;95098.25;;;35.89;26.01
27210;BME280;14721;42.668;23.386;2023-07-29T08:37:58;95102.31;;;35.61;25.04
27210;BME280;14721;42.668;23.386;2023-07-29T08:40:27;95097.31;;;35.58;25.64
27210;BME280;14721;42.668;23.386;2023-07-29T08:42:56;95107.72;;;35.93;24.07
27210;BME280;14721;42.668;23.386;2023-07-29T08:45:24;95103.56;;;36.06;23.47
27210;BME280;14721;42.668;23.386;2023-07-29T08:47:54;95107.75;;;36.23;24.16
27210;BME280;14721;42.668;23.386;2023-07-29T08:50:24;95090.47;;;35.86;24.41
27210;BME280;14721;42.668;23.386;2023-07-29T08:52:50;95092.41;;;35.90;24.96
27210;BME280;14721;42.668;23.386;2023-07-29T08:55:18;95087.97;;;35.94;23.71
27210;BME280;14721;42.668;23.386;2023-07-29T08:57:44;95081.75;;;35.57;23.96
27210;BME280;14721;42.668;23.386;2023-07-29T09:00:11;95060.13;;;35.03;24.88
27210;BME280;14721;42.668;23.386;2023-07-29T09:02:36;95040.06;;;35.47;25.07
27210;BME280;14721;42.668;23.386;2023-07-29T09:05:02;95085.75;;;35.91;24.16
27210;BME280;14721;42.668;23.386;2023-07-29T09:07:28;95090.78;;;36.15;24.12
27210;BME280;14721;42.668;23.386;2023-07-29T09:09:54;95060.16;;;36.10;23.55
27210;BME280;14721;42.668;23.386;2023-07-29T09:12:20;95052.59;;;35.75;22.85
27210;BME280;14721;42.668;23.386;2023-07-29T09:14:46;95058.72;;;35.72;22.66
27210;BME280;14721;42.668;23.386;2023-07-29T09:17:12;95072.41;;;35.93;23.34
27210;BME280;14721;42.668;23.386;2023-07-29T09:19:37;95076.22;;;35.72;23.28
27210;BME280;14721;42.668;23.386;2023-07-29T09:22:08;95073.69;;;35.66;24.40
27210;BME280;14721;42.668;23.386;2023-07-29T09:24:42;95069.81;;;35.72;23.58
27210;BME280;14721;42.668;23.386;2023-07-29T09:27:07;95051.69;;;35.39;22.68
27210;BME280;14721;42.668;23.386;2023-07-29T09:29:35;95058.69;;;34.90;23.04
27210;BME280;14721;42.668;23.386;2023-07-29T09:32:23;95064.59;;;34.57;23.20
27210;BME280;14721;42.668;23.386;2023-07-29T09:34:49;95045.25;;;33.99;24.24
27210;BME280;14721;42.668;23.386;2023-07-29T09:37:22;95042.88;;;33.86;24.74
27210;BME280;14721;42.668;23.386;2023-07-29T09:39:49;95067.66;;;34.24;24.15
27210;BME280;14721;42.668;23.386;2023-07-29T09:42:19;95055.31;;;34.10;23.86
27210;BME280;14721;42.668;23.386;2023-07-29T09:44:45;95059.53;;;33.86;24.55
27210;BME280;14721;42.668;23.386;2023-07-29T09:47:25;95049.97;;;33.72;24.45
27210;BME280;14721;42.668;23.386;2023-07-29T09:49:51;95055.66;;;33.34;25.42
27210;BME280;14721;42.668;23.386;2023-07-29T09:52:19;95042.72;;;33.39;25.92
27210;BME280;14721;42.668;23.386;2023-07-29T09:54:45;95042.59;;;33.08;24.63
27210;BME280;14721;42.668;23.386;2023-07-29T09:57:13;95032.03;;;32.61;26.44
27210;BME280;14721;42.668;23.386;2023-07-29T09:59:39;95017.13;;;32.46;26.00
27210;BME280;14721;42.668;23.386;2023-07-29T10:02:07;95024.13;;;32.32;27.10
27210;BME280;14721;42.668;23.386;2023-07-29T10:04:38;95021.97;;;32.01;26.58
27210;BME280;14721;42.668;23.386;2023-07-29T10:07:03;95008.72;;;31.70;27.05
27210;BME280;14721;42.668;23.386;2023-07-29T10:09:31;95000.44;;;31.53;27.71
27210;BME280;14721;42.668;23.386;2023-07-29T10:11:57;95003.44;;;31.68;27.10
27210;BME280;14721;42.668;23.386;2023-07-29T10:14:22;95026.31;;;31.64;27.31
27210;BME280;14721;42.668;23.386;2023-07-29T10:16:49;95009.69;;;31.31;27.45
27210;BME280;14721;42.668;23.386;2023-07-29T10:19:15;95004.19;;;31.47;27.34
27210;BME280;14721;42.668;23.386;2023-07-29T10:21:44;94982.69;;;31.49;27.73
27210;BME280;14721;42.668;23.386;2023-07-29T10:24:15;95004.19;;;31.47;28.27
27210;BME280;14721;42.668;23.386;2023-07-29T10:26:46;95014.25;;;31.53;27.99
27210;BME280;14721;42.668;23.386;2023-07-29T10:29:13;94994.91;;;31.53;27.81
27210;BME280;14721;42.668;23.386;2023-07-29T10:31:40;94946.06;;;31.26;27.70
27210;BME280;14721;42.668;23.386;2023-07-29T10:34:08;94991.13;;;31.43;28.25
27210;BME280;14721;42.668;23.386;2023-07-29T10:36:35;94987.97;;;31.34;27.71
27210;BME280;14721;42.668;23.386;2023-07-29T10:39:02;94955.44;;;31.08;28.04
27210;BME280;14721;42.668;23.386;2023-07-29T10:41:56;94990.97;;;31.21;27.92
27210;BME280;14721;42.668;23.386;2023-07-29T10:47:21;94983.34;;;30.95;26.89
27210;BME280;14721;42.668;23.386;2023-07-29T10:49:53;94970.53;;;30.89;26.73
27210;BME280;14721;42.668;23.386;2023-07-29T10:55:00;94963.59;;;31.03;26.87
27210;BME280;14721;42.668;23.386;2023-07-29T10:57:34;94963.13;;;31.23;27.33
27210;BME280;14721;42.668;23.386;2023-07-29T11:00:00;94955.59;;;31.46;26.97
27210;BME280;14721;42.668;23.386;2023-07-29T11:02:34;94968.38;;;31.69;26.46
27210;BME280;14721;42.668;23.386;2023-07-29T11:05:26;94962.53;;;31.82;26.42
27210;BME280;14721;42.668;23.386;2023-07-29T11:07:52;94960.00;;;31.47;26.18
27210;BME280;14721;42.668;23.386;2023-07-29T11:10:19;94913.97;;;31.36;26.51
27210;BME280;14721;42.668;23.386;2023-07-29T11:12:46;94944.84;;;31.50;26.65
27210;BME280;14721;42.668;23.386;2023-07-29T11:15:18;94943.78;;;31.67;26.43
27210;BME280;14721;42.668;23.386;2023-07-29T11:17:48;94947.94;;;31.70;26.44
27210;BME280;14721;42.668;23.386;2023-07-29T11:20:15;94954.00;;;31.83;26.54
27210;BME280;14721;42.668;23.386;2023-07-29T11:22:41;94925.34;;;31.89;26.44
27210;BME280;14721;42.668;23.386;2023-07-29T11:25:12;94944.50;;;32.12;26.42
27210;BME280;14721;42.668;23.386;2023-07-29T11:27:40;94909.53;;;31.85;25.30
27210;BME280;14721;42.668;23.386;2023-07-29T11:30:15;94951.47;;;31.98;24.89
27210;BME280;14721;42.668;23.386;2023-07-29T11:32:43;94899.84;;;31.49;25.17
27210;BME280;14721;42.668;23.386;2023-07-29T11:35:11;94929.97;;;31.34;25.77
27210;BME280;14721;42.668;23.386;2023-07-29T11:37:40;94943.69;;;31.46;26.06
27210;BME280;14721;42.668;23.386;2023-07-29T11:40:09;94933.91;;;31.38;25.58
27210;BME280;14721;42.668;23.386;2023-07-29T11:42:39;94933.00;;;31.33;26.00
27210;BME280;14721;42.668;23.386;2023-07-29T11:45:05;94921.66;;;31.18;26.13
27210;BME280;14721;42.668;23.386;2023-07-29T11:47:32;94921.69;;;31.34;26.69
27210;BME280;14721;42.668;23.386;2023-07-29T11:50:05;94926.88;;;31.64;26.74
27210;BME280;14721;42.668;23.386;2023-07-29T11:52:32;94905.09;;;31.67;26.70
27210;BME280;14721;42.668;23.386;2023-07-29T11:54:59;94918.56;;;31.80;25.45
27210;BME280;14721;42.668;23.386;2023-07-29T11:57:25;94898.56;;;31.73;25.64
27210;BME280;14721;42.668;23.386;2023-07-29T11:59:51;94928.28;;;31.66;25.53
27210;BME280;14721;42.668;23.386;2023-07-29T12:02:17;94926.59;;;31.65;25.96
27210;BME280;14721;42.668;23.386;2023-07-29T12:04:46;94920.50;;;31.47;26.69
27210;BME280;14721;42.668;23.386;2023-07-29T12:07:14;94925.41;;;31.12;26.51
27210;BME280;14721;42.668;23.386;2023-07-29T12:09:42;94882.06;;;30.95;26.49
27210;BME280;14721;42.668;23.386;2023-07-29T12:12:08;94907.16;;;31.11;26.31
27210;BME280;14721;42.668;23.386;2023-07-29T12:14:34;94914.19;;;31.18;26.04
27210;BME280;14721;42.668;23.386;2023-07-29T12:17:05;94892.84;;;30.97;26.10
27210;BME280;14721;42.668;23.386;2023-07-29T12:19:37;94891.59;;;31.05;26.14
27210;BME280;14721;42.668;23.386;2023-07-29T12:22:05;94902.75;;;31.26;26.63
27210;BME280;14721;42.668;23.386;2023-07-29T12:24:31;94902.50;;;31.28;25.86
27210;BME280;14721;42.668;23.386;2023-07-29T12:26:58;94881.16;;;31.23;26.02
27210;BME280;14721;42.668;23.386;2023-07-29T12:29:25;94895.38;;;31.15;25.42
27210;BME280;14721;42.668;23.386;2023-07-29T12:32:02;94891.78;;;31.15;25.42
27210;BME280;14721;42.668;23.386;2023-07-29T12:34:30;94890.34;;;31.12;25.99
27210;BME280;14721;42.668;23.386;2023-07-29T12:36:57;94880.25;;;31.18;26.24
27210;BME280;14721;42.668;23.386;2023-07-29T12:39:25;94869.63;;;31.26;25.40
27210;BME280;14721;42.668;23.386;2023-07-29T12:41:53;94890.47;;;31.50;25.21
27210;BME280;14721;42.668;23.386;2023-07-29T12:44:19;94876.16;;;31.53;25.31
27210;BME280;14721;42.668;23.386;2023-07-29T12:46:45;94869.88;;;31.58;24.87
27210;BME280;14721;42.668;23.386;2023-07-29T12:49:10;94828.69;;;31.56;24.98
27210;BME280;14721;42.668;23.386;2023-07-29T12:51:36;94878.56;;;31.83;25.01
27210;BME280;14721;42.668;23.386;2023-07-29T12:54:03;94856.53;;;31.71;24.53
27210;BME280;14721;42.668;23.386;2023-07-29T12:56:31;94881.91;;;31.85;24.57
27210;BME280;14721;42.668;23.386;2023-07-29T12:58:57;94874.97;;;31.82;24.79
27210;BME280;14721;42.668;23.386;2023-07-29T13:01:24;94856.09;;;31.96;24.41
27210;BME280;14721;42.668;23.386;2023-07-29T13:03:49;94860.13;;;32.10;24.97
27210;BME280;14721;42.668;23.386;2023-07-29T13:06:15;94863.66;;;32.27;25.00
27210;BME280;14721;42.668;23.386;2023-07-29T13:08:45;94874.50;;;32.50;23.75
27210;BME280;14721;42.668;23.386;2023-07-29T13:11:11;94871.16;;;32.75;23.43
27210;BME280;14721;42.668;23.386;2023-07-29T13:13:37;94847.97;;;32.81;23.81
27210;BME280;14721;42.668;23.386;2023-07-29T13:16:04;94844.31;;;32.97;23.33
27210;BME280;14721;42.668;23.386;2023-07-29T13:18:32;94856.03;;;33.09;23.12